KTEB/TEB METAR and TAF weather

Enter ICAO airport designator
Station Type Date Time Source
KTEB METAR 2019/02/17 06:51 UTC NOAA

KTEB 170651Z 35008G15KT 10SM CLR M02/M09 A3007 RMK AO2 SLP182 T10221094 $


Station Type Date Time Source
KTEB Decoded METAR 2019/02/17 06:51 UTC NOAA

TETERBORO AIRPORT, NJ, United States (KTEB) 40-52N 74-03W 7M
Feb 17, 2019 - 01:51 AM EST / 2019.02.17 0651 UTC
Wind: from the N (350 degrees) at 9 MPH (8 KT) gusting to 17 MPH (15 KT):0
Visibility: 10 mile(s):0
Sky conditions: clear
Temperature: 28.0 F (-2.2 C)
Windchill: 19 F (-7 C):1
Dew Point: 15.1 F (-9.4 C)
Relative Humidity: 57%
Pressure (altimeter): 30.07 in. Hg (1018 hPa)
ob: KTEB 170651Z 35008G15KT 10SM CLR M02/M09 A3007 RMK AO2 SLP182 T10221094
cycle: 7

Station Type Date Time Source
KTEB TAF 2019/02/17 06:40 UTC NOAA

TAF KTEB 170538Z 1706/1812 35009KT P6SM FEW250
FM170900 35005KT P6SM FEW250
FM171400 02004KT P6SM FEW250
FM171700 12004KT P6SM SCT250
FM172000 16006KT P6SM SCT100 BKN200
FM180300 10004KT 3SM -SNPL BR BKN025 OVC050
FM180800 06005KT 2SM -SNPLRA BR BKN008
FM181100 04007KT 2SM -RA BR BKN006


Example: see airport list